Time;durP1;ratioP1;P1;durP2;ratioP2;P2;SDS_P1;SDS_P2;PMS_P1;PMS_P2;Temp;Humidity;BMP_temperature;BMP_pressure;BME280_temperature;BME280_humidity;BME280_pressure;Samples;Min_cycle;Max_cycle;Signal;HPM_P1;HPM_P2
2021/09/22 00:00:00;;;;;;;2.25;2.05;;;;;;;7.08;91.97;99269.91;5003431;28;20189;-64
2021/09/22 00:02:46;;;;;;;2.20;2.00;;;;;;;7.25;92.71;99277.38;5000085;28;20026;-65
2021/09/22 00:05:32;;;;;;;2.17;1.98;;;;;;;7.07;92.06;99272.50;5005938;28;20026;-63
2021/09/22 00:08:18;;;;;;;2.58;2.38;;;;;;;7.15;92.54;99274.94;4993942;28;20026;-63
2021/09/22 00:11:04;;;;;;;2.85;2.33;;;;;;;7.24;92.43;99265.38;5004785;28;20038;-63
2021/09/22 00:13:50;;;;;;;2.70;2.40;;;;;;;7.16;92.23;99269.78;5005798;28;20215;-64
2021/09/22 00:16:36;;;;;;;2.65;2.30;;;;;;;7.18;91.39;99262.91;5004226;28;20015;-63
2021/09/22 00:19:22;;;;;;;2.50;2.30;;;;;;;7.28;93.09;99268.75;5004912;28;20094;-63
2021/09/22 00:22:08;;;;;;;2.70;2.40;;;;;;;7.17;92.50;99253.47;5010600;28;20022;-63
2021/09/22 00:24:54;;;;;;;2.67;2.15;;;;;;;7.19;92.20;99267.16;5013554;28;20034;-63
2021/09/22 00:27:41;;;;;;;2.95;2.60;;;;;;;7.11;92.10;99268.97;5004302;28;20295;-62
2021/09/22 00:30:29;;;;;;;3.83;3.00;;;;;;;7.09;91.94;99261.28;5002854;28;20034;-64
2021/09/22 00:33:23;;;;;;;3.00;2.80;;;;;;;7.11;91.63;99260.41;5004899;28;20346;-63
2021/09/22 00:36:09;;;;;;;3.08;2.78;;;;;;;7.05;92.51;99264.78;5004622;28;20359;-63
2021/09/22 00:38:55;;;;;;;3.15;2.85;;;;;;;7.10;92.14;99254.44;5005406;28;20050;-63
2021/09/22 00:41:41;;;;;;;2.83;2.63;;;;;;;7.12;91.77;99244.94;5003064;28;20089;-63
2021/09/22 00:44:27;;;;;;;3.22;2.92;;;;;;;7.16;91.64;99262.06;5013879;28;20038;-64
2021/09/22 00:47:14;;;;;;;3.50;2.92;;;;;;;7.08;91.70;99248.44;5018189;28;20523;-65
2021/09/22 00:50:00;;;;;;;2.90;2.60;;;;;;;7.03;90.63;99239.94;5003859;28;20335;-64
2021/09/22 00:52:46;;;;;;;3.50;2.63;;;;;;;7.04;91.22;99260.50;5003696;28;20030;-63
2021/09/22 00:55:32;;;;;;;3.70;3.25;;;;;;;7.09;91.65;99260.44;5003589;28;20112;-63
2021/09/22 00:58:17;;;;;;;5.03;3.05;;;;;;;7.12;92.73;99249.25;5004046;28;20031;-64
2021/09/22 01:01:04;;;;;;;3.22;2.92;;;;;;;7.07;91.18;99249.31;5004656;28;20034;-63
2021/09/22 01:03:50;;;;;;;3.65;3.10;;;;;;;7.13;91.64;99250.97;5004729;28;20090;-64
2021/09/22 01:06:36;;;;;;;3.42;3.13;;;;;;;7.17;91.24;99240.59;5003947;28;20220;-64
2021/09/22 01:09:22;;;;;;;3.00;2.80;;;;;;;7.22;91.12;99243.91;5001243;28;20037;-64
2021/09/22 01:12:09;;;;;;;3.47;3.00;;;;;;;7.15;91.38;99238.91;5003568;28;20561;-64
2021/09/22 01:14:55;;;;;;;3.63;3.33;;;;;;;7.30;91.27;99248.13;5003469;28;20098;-64
2021/09/22 01:17:41;;;;;;;4.07;3.08;;;;;;;7.28;91.87;99231.84;5003174;28;20029;-64
2021/09/22 01:20:30;;;;;;;3.67;3.30;;;;;;;7.12;90.79;99236.38;5002099;28;20026;-61
2021/09/22 01:23:16;;;;;;;3.38;3.08;;;;;;;7.14;90.75;99230.34;5004316;28;20097;-63
2021/09/22 01:26:02;;;;;;;4.35;3.22;;;;;;;7.22;91.24;99237.94;4987439;28;20018;-63
2021/09/22 01:28:48;;;;;;;3.35;3.05;;;;;;;7.20;90.68;99227.66;5003543;28;20089;-64
2021/09/22 01:31:38;;;;;;;3.97;3.65;;;;;;;7.22;91.34;99230.22;4989420;28;20026;-64
2021/09/22 01:34:24;;;;;;;4.97;3.25;;;;;;;7.27;91.46;99231.00;5003124;28;20327;-63
2021/09/22 01:37:10;;;;;;;5.53;3.28;;;;;;;7.13;91.58;99230.38;5001814;28;20026;-63
2021/09/22 01:39:55;;;;;;;4.18;3.60;;;;;;;7.15;91.28;99229.44;5004031;28;20042;-63
2021/09/22 01:42:42;;;;;;;3.53;3.22;;;;;;;7.06;91.26;99220.13;5004147;28;20353;-64
2021/09/22 01:45:28;;;;;;;3.67;2.90;;;;;;;7.15;91.21;99226.88;5003589;28;20093;-62
2021/09/22 01:48:14;;;;;;;3.40;3.10;;;;;;;7.22;90.76;99231.03;5001773;28;20065;-63
2021/09/22 01:51:02;;;;;;;4.72;3.50;;;;;;;7.23;91.19;99245.63;5004576;28;20077;-64
2021/09/22 01:53:48;;;;;;;4.25;3.35;;;;;;;7.25;91.98;99228.44;5003237;28;20027;-63
2021/09/22 01:56:33;;;;;;;3.50;2.88;;;;;;;7.17;90.97;99232.84;5003046;28;20037;-63
2021/09/22 01:59:20;;;;;;;3.95;3.45;;;;;;;7.20;90.75;99222.50;5003632;28;20335;-64
2021/09/22 02:02:06;;;;;;;3.60;3.28;;;;;;;7.22;90.95;99230.22;5002717;28;20200;-64
2021/09/22 02:04:51;;;;;;;4.03;3.30;;;;;;;6.83;90.23;99235.06;5001952;28;20045;-62
2021/09/22 02:07:37;;;;;;;3.58;3.28;;;;;;;6.96;91.17;99226.28;5008533;28;20104;-63
2021/09/22 02:10:23;;;;;;;4.10;3.70;;;;;;;7.15;91.25;99234.59;5008371;28;20034;-63
2021/09/22 02:13:10;;;;;;;3.60;3.25;;;;;;;6.96;91.09;99233.19;5003094;28;20081;-63
2021/09/22 02:15:56;;;;;;;5.65;4.22;;;;;;;7.04;91.16;99228.75;5002296;28;20255;-63
2021/09/22 02:18:42;;;;;;;4.53;3.72;;;;;;;6.99;91.68;99217.69;5002714;28;20019;-65
2021/09/22 02:21:29;;;;;;;4.57;3.75;;;;;;;7.08;91.47;99231.28;5002520;28;20038;-63
2021/09/22 02:24:15;;;;;;;4.35;3.88;;;;;;;7.09;91.64;99235.53;5003191;28;20026;-64
2021/09/22 02:27:00;;;;;;;5.95;4.13;;;;;;;7.10;92.15;99231.25;5002975;28;20027;-64
2021/09/22 02:29:47;;;;;;;4.00;3.47;;;;;;;6.94;91.91;99194.59;5002552;28;20030;-63
2021/09/22 02:32:33;;;;;;;3.97;3.67;;;;;;;7.06;90.68;99222.72;5003062;28;20034;-64
2021/09/22 02:35:19;;;;;;;3.50;3.00;;;;;;;7.05;90.96;99225.31;5001195;28;20030;-64
2021/09/22 02:38:05;;;;;;;3.80;3.15;;;;;;;7.19;91.57;99228.53;5003043;28;20085;-63
2021/09/22 02:40:51;;;;;;;4.47;3.50;;;;;;;6.94;90.60;99215.19;5001307;28;20056;-63
2021/09/22 02:43:37;;;;;;;3.97;3.50;;;;;;;7.14;90.58;99224.31;5002434;28;20038;-63
2021/09/22 02:46:23;;;;;;;3.60;3.30;;;;;;;7.22;91.74;99222.47;5012319;28;20034;-63
2021/09/22 02:49:09;;;;;;;4.35;3.70;;;;;;;7.25;91.14;99223.31;5002026;28;20106;-63
2021/09/22 02:51:55;;;;;;;3.65;3.35;;;;;;;7.25;90.80;99223.31;5002357;28;20097;-63
2021/09/22 02:54:41;;;;;;;3.88;3.50;;;;;;;7.22;89.98;99222.47;5000880;28;20022;-63
2021/09/22 02:57:27;;;;;;;3.75;3.13;;;;;;;7.04;90.01;99211.59;4999314;28;20034;-63
2021/09/22 03:00:13;;;;;;;3.20;2.97;;;;;;;7.25;90.58;99218.16;5000681;28;20079;-63
2021/09/22 03:02:59;;;;;;;3.38;3.05;;;;;;;7.11;89.43;99214.06;5000202;28;20058;-63
2021/09/22 03:05:45;;;;;;;4.20;3.25;;;;;;;7.11;89.77;99214.06;5016685;28;20073;-63
2021/09/22 03:08:31;;;;;;;4.20;3.50;;;;;;;7.17;90.36;99207.09;5001627;28;20030;-62
2021/09/22 03:11:17;;;;;;;5.38;4.03;;;;;;;7.27;90.47;99207.81;4990152;28;20030;-64
2021/09/22 03:14:03;;;;;;;7.18;3.83;;;;;;;7.17;89.92;99222.56;5002040;28;20421;-62
2021/09/22 03:16:49;;;;;;;4.30;3.90;;;;;;;7.04;90.00;99218.44;4984187;28;20069;-63
2021/09/22 03:19:35;;;;;;;4.78;3.65;;;;;;;6.99;90.82;99203.06;5001308;28;20031;-63
2021/09/22 03:22:21;;;;;;;5.00;3.63;;;;;;;7.02;89.95;99208.16;4986885;28;20030;-63
2021/09/22 03:25:07;;;;;;;4.53;3.55;;;;;;;6.99;90.09;99202.25;5002485;28;20034;-63
2021/09/22 03:27:53;;;;;;;3.83;3.47;;;;;;;6.85;89.46;99210.16;5002431;28;20215;-62
2021/09/22 03:30:40;;;;;;;4.50;3.90;;;;;;;6.99;90.12;99209.97;5014718;28;20104;-63
2021/09/22 03:33:26;;;;;;;5.57;4.55;;;;;;;6.83;90.41;99209.34;5001856;28;20018;-63
2021/09/22 03:36:11;;;;;;;5.05;3.70;;;;;;;6.94;91.05;99215.19;5001549;28;20038;-62
2021/09/22 03:38:57;;;;;;;5.88;4.00;;;;;;;6.86;90.51;99214.44;5001024;28;20097;-62
2021/09/22 03:41:43;;;;;;;5.90;4.68;;;;;;;6.91;90.61;99212.63;5012437;28;20045;-63
2021/09/22 03:44:29;;;;;;;5.22;3.78;;;;;;;6.94;90.91;99215.19;5002102;28;20222;-63
2021/09/22 03:47:15;;;;;;;5.45;4.55;;;;;;;6.98;90.72;99211.66;5002003;28;20037;-63
2021/09/22 03:50:01;;;;;;;4.35;3.95;;;;;;;6.69;90.50;99170.91;5001937;28;20018;-62
2021/09/22 03:52:47;;;;;;;5.05;4.07;;;;;;;6.59;90.50;99198.50;5002266;28;20031;-62
2021/09/22 03:55:33;;;;;;;5.43;4.25;;;;;;;6.98;91.02;99214.22;5001377;28;20331;-63
2021/09/22 03:58:19;;;;;;;6.47;4.53;;;;;;;6.72;90.74;99205.16;4999907;28;20385;-62
2021/09/22 04:01:04;;;;;;;4.88;4.38;;;;;;;6.78;90.76;99200.81;5001160;28;20204;-63
2021/09/22 04:03:50;;;;;;;5.70;4.85;;;;;;;6.81;90.94;99208.47;5000105;28;20053;-63
2021/09/22 04:06:36;;;;;;;5.72;5.10;;;;;;;6.68;90.90;99211.25;4999532;28;20030;-62
2021/09/22 04:09:22;;;;;;;5.20;4.50;;;;;;;6.78;91.34;99204.22;5011129;28;20029;-63
2021/09/22 04:12:08;;;;;;;7.85;4.88;;;;;;;6.73;91.39;99206.88;5005860;28;20038;-64
2021/09/22 04:14:54;;;;;;;5.18;4.40;;;;;;;6.80;91.72;99209.34;5005607;28;20032;-63
2021/09/22 04:17:40;;;;;;;6.47;5.57;;;;;;;6.78;91.47;99213.69;5004496;28;20223;-64
2021/09/22 04:20:26;;;;;;;9.07;5.75;;;;;;;6.90;91.44;99216.94;5004575;28;20026;-64
2021/09/22 04:23:12;;;;;;;5.90;4.45;;;;;;;6.76;91.73;99207.72;5003291;28;20097;-62
2021/09/22 04:25:58;;;;;;;6.10;4.82;;;;;;;6.86;92.12;99211.84;5005565;28;20030;-63
2021/09/22 04:28:43;;;;;;;6.90;5.40;;;;;;;6.89;91.48;99216.97;5004297;28;20042;-63
2021/09/22 04:31:29;;;;;;;8.85;5.47;;;;;;;6.73;91.38;99211.19;5005060;28;20123;-64
2021/09/22 04:34:15;;;;;;;6.68;5.15;;;;;;;6.80;91.44;99210.22;5005186;28;20037;-62
2021/09/22 04:37:01;;;;;;;6.75;4.68;;;;;;;6.66;92.01;99209.56;5004446;28;20223;-64
2021/09/22 04:39:47;;;;;;;5.40;4.65;;;;;;;6.58;91.89;99207.06;5005023;28;20077;-61
2021/09/22 04:42:34;;;;;;;5.57;4.85;;;;;;;6.60;92.84;99214.75;5004153;28;20053;-63
2021/09/22 04:45:22;;;;;;;5.82;5.20;;;;;;;6.23;92.58;99174.94;5004864;28;20081;-63
2021/09/22 04:48:08;;;;;;;6.35;4.95;;;;;;;6.64;92.62;99213.84;5003431;28;20049;-63
2021/09/22 04:50:54;;;;;;;5.28;4.32;;;;;;;6.64;92.95;99204.44;5002992;28;20038;-62
2021/09/22 04:53:40;;;;;;;6.18;4.95;;;;;;;6.67;91.95;99209.53;5002194;28;20049;-63
2021/09/22 04:56:26;;;;;;;6.53;4.88;;;;;;;6.54;92.25;99210.53;5002230;28;20030;-63
2021/09/22 04:59:12;;;;;;;6.43;4.70;;;;;;;6.77;93.15;99209.41;4995628;28;20235;-64
2021/09/22 05:01:58;;;;;;;5.43;4.88;;;;;;;6.80;92.55;99204.19;5004972;28;20026;-64
2021/09/22 05:04:44;;;;;;;5.78;4.55;;;;;;;6.90;92.94;99214.34;5000715;28;20085;-64
2021/09/22 05:07:30;;;;;;;5.00;4.15;;;;;;;7.03;92.11;99198.75;5002842;28;20223;-63
2021/09/22 05:10:16;;;;;;;5.50;4.30;;;;;;;7.05;93.22;99204.72;5000439;28;20030;-63
2021/09/22 05:13:02;;;;;;;4.85;4.30;;;;;;;7.02;92.19;99204.75;5003824;28;20320;-64
2021/09/22 05:15:49;;;;;;;5.57;4.55;;;;;;;6.85;92.68;99200.69;5003177;28;20022;-63
2021/09/22 05:18:35;;;;;;;5.75;4.30;;;;;;;6.95;92.16;99200.56;5003744;28;20072;-65
2021/09/22 05:21:21;;;;;;;5.18;4.50;;;;;;;7.00;92.67;99204.78;5003950;28;20048;-65
2021/09/22 05:24:07;;;;;;;5.20;4.63;;;;;;;7.05;92.07;99200.44;5001446;28;20034;-65
2021/09/22 05:26:53;;;;;;;5.75;4.63;;;;;;;7.10;91.73;99195.19;4990034;28;21090;-65
2021/09/22 05:29:39;;;;;;;4.65;4.15;;;;;;;6.88;91.45;99207.53;4958114;28;20037;-65
2021/09/22 05:32:25;;;;;;;5.10;4.28;;;;;;;6.83;91.73;99206.75;5015567;28;20219;-64
2021/09/22 05:35:10;;;;;;;5.15;4.20;;;;;;;7.04;91.75;99206.44;5015507;28;20030;-65
2021/09/22 05:37:59;;;;;;;5.95;5.30;;;;;;;7.04;92.36;99213.28;5003253;28;20109;-64
2021/09/22 05:40:45;;;;;;;5.53;4.85;;;;;;;7.05;91.80;99203.00;5004138;28;20216;-65
2021/09/22 05:43:31;;;;;;;6.28;5.00;;;;;;;7.08;92.61;99208.09;5003897;28;20222;-66
2021/09/22 05:46:16;;;;;;;9.02;4.82;;;;;;;7.21;92.78;99213.91;5003850;28;20030;-65
2021/09/22 05:49:03;;;;;;;4.78;4.28;;;;;;;7.04;91.89;99183.28;5003957;28;20046;-64
2021/09/22 05:51:49;;;;;;;5.72;4.00;;;;;;;7.24;92.64;99198.41;5002123;28;20386;-64
2021/09/22 05:54:36;;;;;;;5.97;3.75;;;;;;;7.08;91.21;99213.25;5001372;28;20402;-65
2021/09/22 05:57:22;;;;;;;4.65;4.22;;;;;;;7.14;92.62;99211.44;5002241;28;20058;-65
2021/09/22 06:00:08;;;;;;;4.90;4.40;;;;;;;7.19;92.38;99209.66;5002133;28;20066;-65
2021/09/22 06:02:54;;;;;;;8.63;4.10;;;;;;;7.18;92.56;99207.94;5002232;28;20030;-65
2021/09/22 06:05:40;;;;;;;4.82;4.00;;;;;;;7.34;92.88;99206.84;5002159;28;20030;-65
2021/09/22 06:08:26;;;;;;;5.18;4.50;;;;;;;7.16;91.83;99171.09;5003575;28;20034;-65
2021/09/22 06:11:12;;;;;;;4.32;3.92;;;;;;;7.33;91.43;99206.88;5002128;28;20211;-65
2021/09/22 06:13:58;;;;;;;3.88;3.47;;;;;;;7.30;91.71;99212.06;5002324;28;20041;-65
2021/09/22 06:16:44;;;;;;;4.55;4.07;;;;;;;7.33;91.86;99210.28;5001618;28;20056;-65
2021/09/22 06:19:30;;;;;;;4.22;3.55;;;;;;;7.26;92.32;99217.25;4999889;28;20072;-66
2021/09/22 06:22:22;;;;;;;3.63;3.30;;;;;;;7.47;92.18;99209.19;5002593;28;20062;-65
2021/09/22 06:25:08;;;;;;;;;;;;;;;7.49;91.44;99212.63;5000889;28;20105;-66
2021/09/22 06:27:54;;;;;;;5.93;3.60;;;;;;;7.51;91.51;99216.88;5002733;28;20210;-63
2021/09/22 06:30:40;;;;;;;5.00;4.05;;;;;;;7.42;91.90;99217.88;5001172;28;20032;-65
2021/09/22 06:33:26;;;;;;;4.30;3.58;;;;;;;7.48;92.36;99216.06;5019144;28;20033;-66
2021/09/22 06:36:12;;;;;;;25.73;15.48;;;;;;;7.33;92.38;99209.44;5001815;28;20349;-65
2021/09/22 06:38:58;;;;;;;4.82;3.80;;;;;;;7.49;92.38;99217.78;5000765;28;20058;-64
2021/09/22 06:41:44;;;;;;;5.57;4.35;;;;;;;7.59;92.01;99219.31;5001177;28;20049;-65
2021/09/22 06:44:30;;;;;;;3.25;2.58;;;;;;;7.28;91.26;99229.25;5000436;28;20033;-64
2021/09/22 06:47:16;;;;;;;4.03;3.20;;;;;;;7.40;91.44;99235.06;5000749;28;20330;-65
2021/09/22 06:50:02;;;;;;;3.67;3.10;;;;;;;7.53;92.26;99224.59;4998302;28;20038;-64
2021/09/22 06:52:48;;;;;;;3.78;2.90;;;;;;;7.60;92.57;99232.16;5003106;28;20093;-64
2021/09/22 06:55:34;;;;;;;3.30;2.83;;;;;;;7.60;91.96;99231.31;5000689;28;20045;-66
2021/09/22 06:58:20;;;;;;;6.32;3.83;;;;;;;7.56;91.89;99221.94;5001330;28;20034;-65
2021/09/22 07:01:06;;;;;;;3.35;3.05;;;;;;;7.54;91.14;99232.28;5001639;28;20243;-65
2021/09/22 07:03:52;;;;;;;4.82;3.70;;;;;;;7.42;92.07;99243.66;5002458;28;20026;-65
2021/09/22 07:06:38;;;;;;;3.30;3.00;;;;;;;7.59;92.03;99238.19;5002658;28;20022;-65
2021/09/22 07:09:23;;;;;;;3.08;2.78;;;;;;;7.39;91.74;99187.00;5001495;28;20080;-65
2021/09/22 07:12:09;;;;;;;4.75;3.38;;;;;;;7.74;92.02;99234.53;5002225;28;20073;-65
2021/09/22 07:14:55;;;;;;;3.80;3.33;;;;;;;7.77;91.98;99237.03;5000848;28;20022;-65
2021/09/22 07:17:41;;;;;;;3.03;2.72;;;;;;;7.59;91.86;99229.63;5001709;28;20089;-66
2021/09/22 07:20:27;;;;;;;3.75;3.35;;;;;;;7.50;91.57;99245.25;5002169;28;20138;-65
2021/09/22 07:23:13;;;;;;;3.47;3.17;;;;;;;7.48;92.18;99247.84;5000488;28;20070;-65
2021/09/22 07:25:59;;;;;;;3.45;3.15;;;;;;;7.60;92.80;99236.47;5001895;28;20019;-66
2021/09/22 07:28:45;;;;;;;3.80;3.00;;;;;;;7.47;92.09;99246.13;5001235;28;20378;-65
2021/09/22 07:31:31;;;;;;;4.15;2.95;;;;;;;7.46;92.43;99241.84;5005886;28;20050;-65
2021/09/22 07:34:17;;;;;;;3.50;3.13;;;;;;;7.63;92.10;99241.59;5009445;28;20108;-64
2021/09/22 07:37:07;;;;;;;5.78;3.25;;;;;;;7.56;92.05;99239.97;5001672;28;20100;-65
2021/09/22 07:39:53;;;;;;;6.55;3.85;;;;;;;7.66;92.90;99241.53;5000567;28;20061;-65
2021/09/22 07:42:39;;;;;;;4.00;3.60;;;;;;;7.78;92.46;99241.31;5011596;28;20061;-65
2021/09/22 07:45:26;;;;;;;4.72;3.65;;;;;;;7.86;93.06;99248.91;5010628;28;20026;-65
2021/09/22 07:48:12;;;;;;;4.10;3.42;;;;;;;7.92;92.43;99238.50;5004753;28;20346;-64
2021/09/22 07:50:57;;;;;;;3.42;2.95;;;;;;;7.51;91.90;99242.66;5004875;28;20354;-64
2021/09/22 07:53:43;;;;;;;4.47;3.17;;;;;;;7.74;93.02;99244.84;5005773;28;20235;-65
2021/09/22 07:56:29;;;;;;;3.60;3.20;;;;;;;7.87;92.53;99244.63;5005818;28;20027;-65
2021/09/22 07:59:15;;;;;;;5.32;3.53;;;;;;;7.94;93.07;99244.47;5004299;28;20033;-66
2021/09/22 08:02:01;;;;;;;4.88;3.10;;;;;;;7.88;92.05;99246.31;5005534;28;20041;-65
2021/09/22 08:04:47;;;;;;;3.85;3.40;;;;;;;7.92;93.07;99248.81;5005043;28;20030;-65
2021/09/22 08:07:33;;;;;;;5.35;3.40;;;;;;;7.62;91.78;99251.91;5006760;28;20037;-64
2021/09/22 08:10:27;;;;;;;4.45;2.90;;;;;;;7.69;93.18;99253.50;5003941;28;20030;-65
2021/09/22 08:13:13;;;;;;;4.03;3.10;;;;;;;7.81;92.37;99247.28;5005140;28;20084;-64
2021/09/22 08:15:59;;;;;;;2.75;2.55;;;;;;;7.80;92.18;99255.94;5002198;28;20505;-64
2021/09/22 08:18:46;;;;;;;3.30;2.85;;;;;;;7.84;91.92;99253.25;5002945;28;20093;-65
2021/09/22 08:21:32;;;;;;;10.23;7.03;;;;;;;7.92;92.26;99253.97;5003237;28;20026;-64
2021/09/22 08:24:18;;;;;;;3.92;3.28;;;;;;;7.93;91.33;99255.66;5002769;28;20026;-65
2021/09/22 08:27:06;;;;;;;4.03;2.80;;;;;;;7.86;91.68;99256.66;4999069;28;20066;-65
2021/09/22 08:29:52;;;;;;;5.47;2.65;;;;;;;7.87;91.81;99254.94;5000891;28;20022;-66
2021/09/22 08:32:38;;;;;;;2.75;2.53;;;;;;;7.86;92.59;99255.81;5002502;28;20361;-65
2021/09/22 08:35:24;;;;;;;3.00;2.75;;;;;;;7.82;91.99;99257.56;5002513;28;20034;-64
2021/09/22 08:38:10;;;;;;;6.40;3.10;;;;;;;7.92;92.35;99258.28;5000643;28;20062;-65
2021/09/22 08:40:56;;;;;;;6.00;3.13;;;;;;;7.84;92.52;99245.53;4998502;28;20029;-64
2021/09/22 08:43:42;;;;;;;5.05;3.13;;;;;;;8.01;91.68;99262.41;5000582;28;20331;-64
2021/09/22 08:46:29;;;;;;;3.80;2.88;;;;;;;7.97;93.35;99261.63;5001663;28;20250;-64
2021/09/22 08:49:15;;;;;;;3.95;3.17;;;;;;;7.72;92.73;99253.47;5000975;28;20018;-64
2021/09/22 08:52:02;;;;;;;3.92;3.08;;;;;;;7.82;93.20;99255.00;5000160;28;20084;-64
2021/09/22 08:54:48;;;;;;;4.50;2.97;;;;;;;7.72;92.09;99261.19;5000500;28;20037;-63
2021/09/22 08:57:34;;;;;;;4.47;3.25;;;;;;;7.71;93.46;99270.66;4998821;28;20038;-63
2021/09/22 09:00:20;;;;;;;3.15;2.85;;;;;;;7.89;93.00;99258.31;4986540;28;20102;-64
2021/09/22 09:03:06;;;;;;;3.97;3.40;;;;;;;7.93;92.68;99265.13;5004147;28;20038;-63
2021/09/22 09:05:52;;;;;;;4.03;3.20;;;;;;;8.04;93.94;99264.97;5004599;28;20019;-65
2021/09/22 09:08:40;;;;;;;4.32;3.15;;;;;;;7.93;93.08;99249.66;5004483;28;20041;-64
2021/09/22 09:11:29;;;;;;;3.70;3.30;;;;;;;8.05;92.45;99264.94;5004599;28;20211;-64
2021/09/22 09:14:16;;;;;;;4.68;3.25;;;;;;;7.95;92.85;99255.63;5005084;28;20347;-64
2021/09/22 09:17:09;;;;;;;2.88;2.67;;;;;;;7.96;91.93;99265.06;5004483;28;20040;-65
2021/09/22 09:19:57;;;;;;;2.50;2.30;;;;;;;7.86;91.85;99274.69;5004251;28;20094;-64
2021/09/22 09:23:10;;;;;;;2.70;2.47;;;;;;;8.04;93.33;99270.97;5003521;28;20073;-65
2021/09/22 09:26:04;;;;;;;3.47;2.95;;;;;;;8.12;91.68;99282.00;5001440;28;20037;-65
2021/09/22 09:28:53;;;;;;;5.30;3.25;;;;;;;8.00;91.79;99261.56;5000350;28;20104;-64
2021/09/22 09:31:39;;;;;;;4.05;2.70;;;;;;;8.02;92.57;99275.28;5002472;28;20061;-64
2021/09/22 09:34:25;;;;;;;3.03;2.67;;;;;;;8.20;92.89;99275.84;5002483;28;20390;-64
2021/09/22 09:37:10;;;;;;;4.43;3.00;;;;;;;8.13;92.43;99278.50;5001053;28;20137;-64
2021/09/22 09:39:57;;;;;;;2.90;2.45;;;;;;;8.30;92.16;99269.63;5003987;28;20050;-64
2021/09/22 09:42:44;;;;;;;2.40;2.20;;;;;;;8.08;90.76;99277.75;5001801;28;20026;-64
2021/09/22 09:45:42;;;;;;;3.03;2.65;;;;;;;8.11;91.69;99280.28;5003241;28;20026;-64
2021/09/22 09:48:28;;;;;;;2.90;2.60;;;;;;;7.91;91.50;99282.38;4997489;28;20316;-65
2021/09/22 09:51:38;;;;;;;2.92;2.55;;;;;;;7.70;91.13;99224.28;4990712;28;20180;-65
2021/09/22 09:54:49;;;;;;;4.30;2.75;;;;;;;7.71;90.99;99218.25;5002284;28;20026;-64
2021/09/22 09:57:49;;;;;;;2.67;2.47;;;;;;;8.08;91.36;99275.19;5003266;28;20023;-64
2021/09/22 10:00:38;;;;;;;7.93;3.35;;;;;;;8.12;91.52;99287.16;5002902;28;20353;-64
2021/09/22 10:03:24;;;;;;;6.40;3.20;;;;;;;8.25;92.75;99281.75;5002106;28;20156;-64
2021/09/22 10:06:10;;;;;;;3.70;3.20;;;;;;;8.23;92.48;99268.88;5003037;28;20027;-64
2021/09/22 10:08:56;;;;;;;3.65;2.65;;;;;;;8.08;91.67;99264.88;5000914;28;20022;-65
2021/09/22 10:11:47;;;;;;;2.90;2.60;;;;;;;8.23;91.78;99281.78;5003130;28;20030;-64
2021/09/22 10:14:33;;;;;;;3.72;2.35;;;;;;;8.10;91.11;99283.72;5003171;28;20290;-64
2021/09/22 10:17:22;;;;;;;3.13;2.60;;;;;;;8.16;91.75;99292.25;5000607;28;20041;-64
2021/09/22 10:20:08;;;;;;;3.58;2.67;;;;;;;8.23;90.68;99288.69;5003409;28;20097;-63
2021/09/22 10:22:54;;;;;;;5.80;2.72;;;;;;;8.28;91.21;99285.13;5002886;28;20038;-64
2021/09/22 10:25:41;;;;;;;6.43;2.80;;;;;;;8.26;90.55;99292.03;5001830;28;20122;-63
2021/09/22 10:28:42;;;;;;;4.30;2.70;;;;;;;8.07;91.66;99239.94;5000923;28;20054;-64
2021/09/22 10:31:30;;;;;;;3.30;2.40;;;;;;;8.38;90.93;99284.94;5002259;28;20385;-63
2021/09/22 10:34:33;;;;;;;3.03;2.47;;;;;;;8.42;90.85;99294.34;5000422;28;20077;-64
2021/09/22 10:37:31;;;;;;;2.53;2.33;;;;;;;8.30;90.41;99260.16;5003382;28;20096;-64
2021/09/22 10:40:18;;;;;;;2.47;2.20;;;;;;;8.49;89.08;99287.38;5004068;28;20057;-64
2021/09/22 10:43:13;;;;;;;4.85;3.00;;;;;;;8.43;89.29;99291.72;5001972;28;20030;-64
2021/09/22 10:46:08;;;;;;;2.22;2.03;;;;;;;8.45;87.75;99294.31;5003231;28;20105;-63
2021/09/22 10:49:07;;;;;;;2.47;2.28;;;;;;;8.31;87.98;99294.56;5002665;28;20230;-63
2021/09/22 10:51:54;;;;;;;3.83;2.25;;;;;;;8.33;88.41;99282.47;5002118;28;20061;-64
2021/09/22 10:55:07;;;;;;;4.57;2.10;;;;;;;8.33;89.14;99299.69;5001860;28;20038;-62
2021/09/22 10:58:10;;;;;;;3.78;2.80;;;;;;;8.15;89.70;99259.59;5001517;28;20026;-64
2021/09/22 11:00:56;;;;;;;3.63;2.92;;;;;;;8.46;89.34;99296.00;5001880;28;20037;-64
2021/09/22 11:03:48;;;;;;;3.15;2.53;;;;;;;8.60;90.16;99303.50;5001311;28;20447;-64
2021/09/22 11:06:42;;;;;;;4.00;2.80;;;;;;;8.56;88.94;99301.84;4998519;28;20101;-63
2021/09/22 11:09:31;;;;;;;3.78;2.70;;;;;;;8.30;88.12;99279.94;5002569;28;20027;-63
2021/09/22 11:12:18;;;;;;;3.05;2.22;;;;;;;8.25;89.53;99302.38;4990035;28;20040;-63
2021/09/22 11:15:05;;;;;;;4.07;2.47;;;;;;;8.07;89.37;99277.78;5003058;28;20278;-64
2021/09/22 11:17:51;;;;;;;2.30;2.10;;;;;;;8.37;88.80;99312.50;5002041;28;20089;-63
2021/09/22 11:20:37;;;;;;;3.25;2.45;;;;;;;8.39;88.89;99309.88;5001908;28;20192;-63
2021/09/22 11:23:25;;;;;;;2.75;2.33;;;;;;;8.31;89.60;99273.91;5001618;28;20033;-63
2021/09/22 11:26:11;;;;;;;4.03;2.63;;;;;;;8.56;88.98;99310.44;4998531;28;20022;-64
2021/09/22 11:28:59;;;;;;;2.25;2.05;;;;;;;8.50;87.39;99312.31;4994231;28;20031;-62
2021/09/22 11:31:45;;;;;;;2.30;2.10;;;;;;;8.37;87.78;99273.78;4995156;28;20022;-63
2021/09/22 11:34:31;;;;;;;3.28;2.17;;;;;;;8.53;87.81;99301.91;4991991;28;20027;-64
2021/09/22 11:37:17;;;;;;;2.60;2.40;;;;;;;8.54;87.48;99296.72;5008544;28;20038;-64
2021/09/22 11:40:22;;;;;;;5.88;3.20;;;;;;;8.67;87.42;99309.41;4995991;28;20081;-64
2021/09/22 11:43:14;;;;;;;4.07;2.55;;;;;;;8.44;88.11;99262.50;4997470;28;20034;-64
2021/09/22 11:46:02;;;;;;;3.55;2.60;;;;;;;8.37;87.23;99250.56;4995525;28;20247;-64
2021/09/22 11:48:48;;;;;;;2.97;2.65;;;;;;;8.60;87.74;99308.66;4995890;28;20195;-63
2021/09/22 11:51:34;;;;;;;2.85;2.53;;;;;;;8.62;86.40;99300.00;4995624;28;20289;-64
2021/09/22 11:54:19;;;;;;;5.95;2.83;;;;;;;8.71;87.36;99298.13;4998009;28;20050;-65
2021/09/22 11:57:07;;;;;;;3.30;2.45;;;;;;;8.72;88.23;99305.84;5000685;28;20327;-64
2021/09/22 11:59:54;;;;;;;5.53;2.70;;;;;;;8.73;87.30;99310.09;4998521;28;20061;-64
2021/09/22 12:02:40;;;;;;;3.42;2.78;;;;;;;8.77;87.46;99311.75;4999871;28;20328;-63
2021/09/22 12:05:26;;;;;;;4.15;3.20;;;;;;;8.84;86.86;99314.22;4997630;28;20033;-63
2021/09/22 12:08:12;;;;;;;3.85;3.35;;;;;;;8.60;85.78;99299.16;4999298;28;20026;-64
2021/09/22 12:10:59;;;;;;;3.50;3.10;;;;;;;8.80;87.19;99322.00;5000499;28;20117;-64
2021/09/22 12:13:47;;;;;;;3.40;3.10;;;;;;;8.72;87.82;99328.22;5000557;28;20339;-65
2021/09/22 12:16:33;;;;;;;4.88;3.15;;;;;;;8.63;87.10;99318.91;4994268;28;20033;-63
2021/09/22 12:19:19;;;;;;;3.40;2.92;;;;;;;8.68;87.58;99306.78;4997044;28;20056;-63
2021/09/22 12:22:09;;;;;;;3.30;3.00;;;;;;;8.37;87.42;99266.03;5000508;28;20304;-64
2021/09/22 12:24:56;;;;;;;2.60;2.40;;;;;;;8.74;85.91;99316.13;5000481;28;20026;-64
2021/09/22 12:27:48;;;;;;;3.10;2.80;;;;;;;8.50;86.38;99291.66;5000735;28;20022;-63
2021/09/22 12:30:38;;;;;;;;;;;;;;;8.55;86.29;99320.78;5018406;28;20042;-62
2021/09/22 12:33:24;;;;;;;2.72;2.50;;;;;;;8.65;87.20;99306.84;5003081;28;19917;-65
2021/09/22 12:36:13;;;;;;;5.13;2.72;;;;;;;8.75;87.75;99310.94;5003950;28;20121;-62
2021/09/22 12:38:59;;;;;;;3.33;3.03;;;;;;;8.84;87.80;99319.38;4993297;28;20042;-64
2021/09/22 12:42:04;;;;;;;3.42;3.13;;;;;;;8.64;86.84;99289.66;5005023;28;20041;-63
2021/09/22 12:45:02;;;;;;;3.70;3.00;;;;;;;8.69;87.30;99318.78;5000017;28;20125;-63
2021/09/22 12:47:52;;;;;;;3.58;3.20;;;;;;;8.77;87.31;99326.41;5004650;28;20110;-64
2021/09/22 12:50:41;;;;;;;3.58;3.28;;;;;;;8.54;87.83;99275.22;5003440;28;20277;-63
2021/09/22 12:53:30;;;;;;;4.68;3.63;;;;;;;8.87;87.75;99337.41;5005531;28;20090;-63
2021/09/22 12:56:18;;;;;;;3.40;3.10;;;;;;;8.66;87.16;99328.34;5004665;28;20062;-62
2021/09/22 12:59:28;;;;;;;6.20;4.32;;;;;;;8.54;89.23;99332.84;5004672;28;20041;-62
2021/09/22 13:02:26;;;;;;;5.70;4.50;;;;;;;8.40;88.96;99338.22;5003545;28;20026;-62
2021/09/22 13:05:12;;;;;;;5.70;4.28;;;;;;;8.55;88.86;99339.72;5004414;28;20057;-63
2021/09/22 13:07:58;;;;;;;8.00;4.53;;;;;;;8.50;87.92;99340.69;5003513;28;20153;-62
2021/09/22 13:10:57;;;;;;;5.20;4.32;;;;;;;8.52;88.99;99337.19;5001784;28;20034;-62
2021/09/22 13:14:06;;;;;;;5.50;4.50;;;;;;;8.71;88.97;99342.03;5002159;28;20044;-63
2021/09/22 13:16:57;;;;;;;4.85;4.28;;;;;;;8.60;88.65;99349.94;4999771;28;20057;-62